sensor_id;sensor_type;location;lat;lon;timestamp;P1;durP1;ratioP1;P2;durP2;ratioP2
2522;SDS011;1272;53.332;9.860;2022-07-21T00:01:51;14.33;;;12.30;;
2522;SDS011;1272;53.332;9.860;2022-07-21T00:04:18;14.80;;;12.00;;
2522;SDS011;1272;53.332;9.860;2022-07-21T00:06:44;13.87;;;12.57;;
2522;SDS011;1272;53.332;9.860;2022-07-21T00:09:11;14.90;;;11.83;;
2522;SDS011;1272;53.332;9.860;2022-07-21T00:11:38;14.60;;;13.10;;
2522;SDS011;1272;53.332;9.860;2022-07-21T00:14:04;13.17;;;11.97;;
2522;SDS011;1272;53.332;9.860;2022-07-21T00:16:32;16.03;;;12.60;;
2522;SDS011;1272;53.332;9.860;2022-07-21T00:18:58;14.23;;;12.70;;
2522;SDS011;1272;53.332;9.860;2022-07-21T00:21:25;16.00;;;13.23;;
2522;SDS011;1272;53.332;9.860;2022-07-21T00:23:54;15.47;;;13.30;;
2522;SDS011;1272;53.332;9.860;2022-07-21T00:26:20;17.63;;;14.03;;
2522;SDS011;1272;53.332;9.860;2022-07-21T00:28:45;14.27;;;12.90;;
2522;SDS011;1272;53.332;9.860;2022-07-21T00:31:11;17.50;;;12.13;;
2522;SDS011;1272;53.332;9.860;2022-07-21T00:33:37;13.73;;;12.03;;
2522;SDS011;1272;53.332;9.860;2022-07-21T00:36:03;18.70;;;12.60;;
2522;SDS011;1272;53.332;9.860;2022-07-21T00:38:29;14.63;;;12.83;;
2522;SDS011;1272;53.332;9.860;2022-07-21T00:40:54;15.43;;;12.40;;
2522;SDS011;1272;53.332;9.860;2022-07-21T00:43:20;15.70;;;13.00;;
2522;SDS011;1272;53.332;9.860;2022-07-21T00:45:46;16.30;;;13.20;;
2522;SDS011;1272;53.332;9.860;2022-07-21T00:48:12;14.97;;;13.50;;
2522;SDS011;1272;53.332;9.860;2022-07-21T00:50:38;14.30;;;11.23;;
2522;SDS011;1272;53.332;9.860;2022-07-21T00:53:04;19.53;;;13.00;;
2522;SDS011;1272;53.332;9.860;2022-07-21T00:55:30;14.73;;;12.63;;
2522;SDS011;1272;53.332;9.860;2022-07-21T00:57:56;15.37;;;11.80;;
2522;SDS011;1272;53.332;9.860;2022-07-21T01:00:30;15.60;;;13.10;;
2522;SDS011;1272;53.332;9.860;2022-07-21T01:02:57;16.20;;;13.67;;
2522;SDS011;1272;53.332;9.860;2022-07-21T01:05:23;18.27;;;15.40;;
2522;SDS011;1272;53.332;9.860;2022-07-21T01:07:50;15.90;;;14.23;;
2522;SDS011;1272;53.332;9.860;2022-07-21T01:10:18;17.87;;;15.00;;
2522;SDS011;1272;53.332;9.860;2022-07-21T01:12:46;17.67;;;15.07;;
2522;SDS011;1272;53.332;9.860;2022-07-21T01:15:13;18.00;;;15.97;;
2522;SDS011;1272;53.332;9.860;2022-07-21T01:17:41;21.97;;;16.50;;
2522;SDS011;1272;53.332;9.860;2022-07-21T01:20:10;16.73;;;15.03;;
2522;SDS011;1272;53.332;9.860;2022-07-21T01:22:38;17.27;;;14.10;;
2522;SDS011;1272;53.332;9.860;2022-07-21T01:25:06;17.67;;;15.80;;
2522;SDS011;1272;53.332;9.860;2022-07-21T01:27:32;23.63;;;16.50;;
2522;SDS011;1272;53.332;9.860;2022-07-21T01:29:58;19.90;;;15.47;;
2522;SDS011;1272;53.332;9.860;2022-07-21T01:32:24;17.23;;;14.87;;
2522;SDS011;1272;53.332;9.860;2022-07-21T01:34:50;15.93;;;14.30;;
2522;SDS011;1272;53.332;9.860;2022-07-21T01:37:20;15.70;;;13.87;;
2522;SDS011;1272;53.332;9.860;2022-07-21T01:39:52;14.97;;;13.13;;
2522;SDS011;1272;53.332;9.860;2022-07-21T01:42:36;17.20;;;13.63;;
2522;SDS011;1272;53.332;9.860;2022-07-21T01:45:03;16.07;;;13.73;;
2522;SDS011;1272;53.332;9.860;2022-07-21T01:47:29;17.83;;;13.70;;
2522;SDS011;1272;53.332;9.860;2022-07-21T01:49:55;15.87;;;14.13;;
2522;SDS011;1272;53.332;9.860;2022-07-21T01:52:21;18.13;;;13.27;;
2522;SDS011;1272;53.332;9.860;2022-07-21T01:54:46;14.90;;;13.23;;
2522;SDS011;1272;53.332;9.860;2022-07-21T01:57:12;19.67;;;12.63;;
2522;SDS011;1272;53.332;9.860;2022-07-21T01:59:38;21.10;;;13.47;;
2522;SDS011;1272;53.332;9.860;2022-07-21T02:02:03;15.00;;;13.37;;
2522;SDS011;1272;53.332;9.860;2022-07-21T02:04:29;14.67;;;11.50;;
2522;SDS011;1272;53.332;9.860;2022-07-21T02:06:55;15.57;;;12.83;;
2522;SDS011;1272;53.332;9.860;2022-07-21T02:09:21;18.73;;;13.93;;
2522;SDS011;1272;53.332;9.860;2022-07-21T02:11:47;17.17;;;13.30;;
2522;SDS011;1272;53.332;9.860;2022-07-21T02:14:12;14.30;;;12.10;;
2522;SDS011;1272;53.332;9.860;2022-07-21T02:16:38;17.43;;;11.40;;
2522;SDS011;1272;53.332;9.860;2022-07-21T02:19:04;13.57;;;12.17;;
2522;SDS011;1272;53.332;9.860;2022-07-21T02:21:30;18.13;;;13.20;;
2522;SDS011;1272;53.332;9.860;2022-07-21T02:23:55;16.60;;;12.50;;
2522;SDS011;1272;53.332;9.860;2022-07-21T02:26:21;14.30;;;12.60;;
2522;SDS011;1272;53.332;9.860;2022-07-21T02:28:47;16.10;;;12.03;;
2522;SDS011;1272;53.332;9.860;2022-07-21T02:31:13;20.10;;;13.97;;
2522;SDS011;1272;53.332;9.860;2022-07-21T02:33:39;19.30;;;11.80;;
2522;SDS011;1272;53.332;9.860;2022-07-21T02:36:05;13.90;;;12.43;;
2522;SDS011;1272;53.332;9.860;2022-07-21T02:38:31;14.80;;;12.37;;
2522;SDS011;1272;53.332;9.860;2022-07-21T02:40:57;15.57;;;13.00;;
2522;SDS011;1272;53.332;9.860;2022-07-21T02:43:22;17.53;;;12.37;;
2522;SDS011;1272;53.332;9.860;2022-07-21T02:45:48;14.53;;;10.77;;
2522;SDS011;1272;53.332;9.860;2022-07-21T02:48:13;18.07;;;12.00;;
2522;SDS011;1272;53.332;9.860;2022-07-21T02:50:40;15.13;;;12.40;;
2522;SDS011;1272;53.332;9.860;2022-07-21T02:53:12;14.33;;;11.40;;
2522;SDS011;1272;53.332;9.860;2022-07-21T02:55:47;14.57;;;11.13;;
2522;SDS011;1272;53.332;9.860;2022-07-21T02:58:16;17.83;;;11.50;;
2522;SDS011;1272;53.332;9.860;2022-07-21T03:00:54;14.93;;;12.60;;
2522;SDS011;1272;53.332;9.860;2022-07-21T03:03:30;22.03;;;10.73;;
2522;SDS011;1272;53.332;9.860;2022-07-21T03:05:57;16.40;;;11.70;;
2522;SDS011;1272;53.332;9.860;2022-07-21T03:08:23;15.63;;;11.10;;
2522;SDS011;1272;53.332;9.860;2022-07-21T03:10:50;12.07;;;10.77;;
2522;SDS011;1272;53.332;9.860;2022-07-21T03:13:16;14.43;;;10.23;;
2522;SDS011;1272;53.332;9.860;2022-07-21T03:15:42;16.27;;;10.83;;
2522;SDS011;1272;53.332;9.860;2022-07-21T03:18:08;12.53;;;10.00;;
2522;SDS011;1272;53.332;9.860;2022-07-21T03:20:35;14.87;;;10.53;;
2522;SDS011;1272;53.332;9.860;2022-07-21T03:23:02;10.30;;;9.40;;
2522;SDS011;1272;53.332;9.860;2022-07-21T03:25:28;14.23;;;9.03;;
2522;SDS011;1272;53.332;9.860;2022-07-21T03:27:55;14.60;;;9.60;;
2522;SDS011;1272;53.332;9.860;2022-07-21T03:30:21;11.03;;;8.57;;
2522;SDS011;1272;53.332;9.860;2022-07-21T03:32:47;12.23;;;9.43;;
2522;SDS011;1272;53.332;9.860;2022-07-21T03:35:14;15.20;;;8.93;;
2522;SDS011;1272;53.332;9.860;2022-07-21T03:37:41;10.90;;;9.10;;
2522;SDS011;1272;53.332;9.860;2022-07-21T03:40:21;10.63;;;9.27;;
2522;SDS011;1272;53.332;9.860;2022-07-21T03:42:56;15.77;;;9.60;;
2522;SDS011;1272;53.332;9.860;2022-07-21T03:45:23;13.20;;;9.40;;
2522;SDS011;1272;53.332;9.860;2022-07-21T03:47:49;11.80;;;8.27;;
2522;SDS011;1272;53.332;9.860;2022-07-21T03:50:15;13.93;;;8.80;;
2522;SDS011;1272;53.332;9.860;2022-07-21T03:52:43;8.50;;;7.63;;
2522;SDS011;1272;53.332;9.860;2022-07-21T03:55:09;17.47;;;8.60;;
2522;SDS011;1272;53.332;9.860;2022-07-21T03:57:38;14.73;;;8.70;;
2522;SDS011;1272;53.332;9.860;2022-07-21T04:00:07;10.63;;;9.07;;
2522;SDS011;1272;53.332;9.860;2022-07-21T04:02:35;12.73;;;8.40;;
2522;SDS011;1272;53.332;9.860;2022-07-21T04:05:01;9.70;;;8.70;;
2522;SDS011;1272;53.332;9.860;2022-07-21T04:07:28;11.43;;;8.70;;
2522;SDS011;1272;53.332;9.860;2022-07-21T04:09:54;11.33;;;8.73;;
2522;SDS011;1272;53.332;9.860;2022-07-21T04:12:21;14.73;;;8.57;;
2522;SDS011;1272;53.332;9.860;2022-07-21T04:14:50;8.90;;;7.90;;
2522;SDS011;1272;53.332;9.860;2022-07-21T04:17:16;9.20;;;8.30;;
2522;SDS011;1272;53.332;9.860;2022-07-21T04:19:42;8.60;;;7.53;;
2522;SDS011;1272;53.332;9.860;2022-07-21T04:22:08;9.57;;;8.10;;
2522;SDS011;1272;53.332;9.860;2022-07-21T04:24:33;9.80;;;7.73;;
2522;SDS011;1272;53.332;9.860;2022-07-21T04:26:59;8.50;;;7.63;;
2522;SDS011;1272;53.332;9.860;2022-07-21T04:29:25;9.23;;;7.73;;
2522;SDS011;1272;53.332;9.860;2022-07-21T04:31:50;7.13;;;6.43;;
2522;SDS011;1272;53.332;9.860;2022-07-21T04:34:16;11.30;;;8.07;;
2522;SDS011;1272;53.332;9.860;2022-07-21T04:36:41;11.50;;;8.20;;
2522;SDS011;1272;53.332;9.860;2022-07-21T04:39:07;13.27;;;9.70;;
2522;SDS011;1272;53.332;9.860;2022-07-21T04:41:33;14.00;;;10.20;;
2522;SDS011;1272;53.332;9.860;2022-07-21T04:44:00;13.13;;;9.00;;
2522;SDS011;1272;53.332;9.860;2022-07-21T04:46:26;12.57;;;8.77;;
2522;SDS011;1272;53.332;9.860;2022-07-21T04:48:51;15.80;;;10.97;;
2522;SDS011;1272;53.332;9.860;2022-07-21T04:51:17;12.30;;;10.20;;
2522;SDS011;1272;53.332;9.860;2022-07-21T04:53:43;13.27;;;11.27;;
2522;SDS011;1272;53.332;9.860;2022-07-21T04:56:08;22.60;;;12.53;;
2522;SDS011;1272;53.332;9.860;2022-07-21T04:58:34;15.93;;;11.40;;
2522;SDS011;1272;53.332;9.860;2022-07-21T05:00:59;12.73;;;10.37;;
2522;SDS011;1272;53.332;9.860;2022-07-21T05:03:25;16.00;;;12.50;;
2522;SDS011;1272;53.332;9.860;2022-07-21T05:05:51;13.10;;;10.87;;
2522;SDS011;1272;53.332;9.860;2022-07-21T05:08:16;13.90;;;10.67;;
2522;SDS011;1272;53.332;9.860;2022-07-21T05:10:42;19.43;;;12.30;;
2522;SDS011;1272;53.332;9.860;2022-07-21T05:13:08;16.37;;;11.80;;
2522;SDS011;1272;53.332;9.860;2022-07-21T05:15:33;16.37;;;12.47;;
2522;SDS011;1272;53.332;9.860;2022-07-21T05:17:59;14.13;;;12.03;;
2522;SDS011;1272;53.332;9.860;2022-07-21T05:20:25;17.13;;;11.83;;
2522;SDS011;1272;53.332;9.860;2022-07-21T05:22:50;18.47;;;12.97;;
2522;SDS011;1272;53.332;9.860;2022-07-21T05:25:16;22.57;;;13.70;;
2522;SDS011;1272;53.332;9.860;2022-07-21T05:27:42;17.00;;;13.57;;
2522;SDS011;1272;53.332;9.860;2022-07-21T05:30:08;17.00;;;13.27;;
2522;SDS011;1272;53.332;9.860;2022-07-21T05:32:34;18.00;;;11.87;;
2522;SDS011;1272;53.332;9.860;2022-07-21T05:35:00;14.70;;;11.00;;
2522;SDS011;1272;53.332;9.860;2022-07-21T05:37:26;13.77;;;11.00;;
2522;SDS011;1272;53.332;9.860;2022-07-21T05:39:52;16.77;;;12.23;;
2522;SDS011;1272;53.332;9.860;2022-07-21T05:42:18;15.83;;;11.30;;
2522;SDS011;1272;53.332;9.860;2022-07-21T05:44:44;12.70;;;10.90;;
2522;SDS011;1272;53.332;9.860;2022-07-21T05:47:10;15.40;;;13.03;;
2522;SDS011;1272;53.332;9.860;2022-07-21T05:49:35;12.50;;;11.10;;
2522;SDS011;1272;53.332;9.860;2022-07-21T05:52:01;17.67;;;10.40;;
2522;SDS011;1272;53.332;9.860;2022-07-21T05:54:27;12.83;;;11.37;;
2522;SDS011;1272;53.332;9.860;2022-07-21T05:56:52;14.83;;;11.70;;
2522;SDS011;1272;53.332;9.860;2022-07-21T05:59:18;16.23;;;11.80;;
2522;SDS011;1272;53.332;9.860;2022-07-21T06:01:44;12.30;;;10.70;;
2522;SDS011;1272;53.332;9.860;2022-07-21T06:04:09;13.10;;;10.90;;
2522;SDS011;1272;53.332;9.860;2022-07-21T06:06:35;15.63;;;10.90;;
2522;SDS011;1272;53.332;9.860;2022-07-21T06:09:01;16.60;;;12.87;;
2522;SDS011;1272;53.332;9.860;2022-07-21T06:11:26;14.43;;;11.80;;
2522;SDS011;1272;53.332;9.860;2022-07-21T06:13:52;18.73;;;12.53;;
2522;SDS011;1272;53.332;9.860;2022-07-21T06:16:18;19.20;;;13.17;;
2522;SDS011;1272;53.332;9.860;2022-07-21T06:18:44;13.53;;;12.13;;
2522;SDS011;1272;53.332;9.860;2022-07-21T06:21:09;13.70;;;11.53;;
2522;SDS011;1272;53.332;9.860;2022-07-21T06:23:35;12.60;;;11.00;;
2522;SDS011;1272;53.332;9.860;2022-07-21T06:26:01;16.43;;;12.93;;
2522;SDS011;1272;53.332;9.860;2022-07-21T06:28:27;15.10;;;13.30;;
2522;SDS011;1272;53.332;9.860;2022-07-21T06:30:53;19.33;;;12.97;;
2522;SDS011;1272;53.332;9.860;2022-07-21T06:33:20;16.90;;;12.20;;
2522;SDS011;1272;53.332;9.860;2022-07-21T06:35:45;16.47;;;13.57;;
2522;SDS011;1272;53.332;9.860;2022-07-21T06:38:11;13.40;;;11.93;;
2522;SDS011;1272;53.332;9.860;2022-07-21T06:40:37;16.87;;;12.30;;
2522;SDS011;1272;53.332;9.860;2022-07-21T06:43:02;14.10;;;12.53;;
2522;SDS011;1272;53.332;9.860;2022-07-21T06:45:28;16.27;;;12.40;;
2522;SDS011;1272;53.332;9.860;2022-07-21T06:48:05;19.80;;;13.57;;
2522;SDS011;1272;53.332;9.860;2022-07-21T06:50:32;14.80;;;11.83;;
2522;SDS011;1272;53.332;9.860;2022-07-21T06:52:58;20.10;;;14.37;;
2522;SDS011;1272;53.332;9.860;2022-07-21T06:55:24;15.47;;;13.90;;
2522;SDS011;1272;53.332;9.860;2022-07-21T06:57:49;18.60;;;14.80;;
2522;SDS011;1272;53.332;9.860;2022-07-21T07:00:15;18.23;;;13.80;;
2522;SDS011;1272;53.332;9.860;2022-07-21T07:02:42;18.97;;;15.10;;
2522;SDS011;1272;53.332;9.860;2022-07-21T07:05:08;15.07;;;12.97;;
2522;SDS011;1272;53.332;9.860;2022-07-21T07:07:33;20.97;;;14.43;;
2522;SDS011;1272;53.332;9.860;2022-07-21T07:09:59;19.13;;;14.47;;
2522;SDS011;1272;53.332;9.860;2022-07-21T07:12:27;21.70;;;14.03;;
2522;SDS011;1272;53.332;9.860;2022-07-21T07:14:53;14.93;;;12.73;;
2522;SDS011;1272;53.332;9.860;2022-07-21T07:17:19;12.90;;;11.70;;
2522;SDS011;1272;53.332;9.860;2022-07-21T07:19:45;14.43;;;12.93;;
2522;SDS011;1272;53.332;9.860;2022-07-21T07:22:14;14.47;;;12.97;;
2522;SDS011;1272;53.332;9.860;2022-07-21T07:24:40;15.47;;;13.90;;
2522;SDS011;1272;53.332;9.860;2022-07-21T07:27:06;16.13;;;13.23;;
2522;SDS011;1272;53.332;9.860;2022-07-21T07:29:32;20.40;;;14.20;;
2522;SDS011;1272;53.332;9.860;2022-07-21T07:31:58;17.63;;;13.77;;
2522;SDS011;1272;53.332;9.860;2022-07-21T07:34:24;13.57;;;12.13;;
2522;SDS011;1272;53.332;9.860;2022-07-21T07:36:50;19.20;;;13.17;;
2522;SDS011;1272;53.332;9.860;2022-07-21T07:39:15;22.13;;;12.47;;
2522;SDS011;1272;53.332;9.860;2022-07-21T07:41:42;14.93;;;12.40;;
2522;SDS011;1272;53.332;9.860;2022-07-21T07:44:08;12.27;;;10.83;;
2522;SDS011;1272;53.332;9.860;2022-07-21T07:46:34;11.03;;;9.40;;
2522;SDS011;1272;53.332;9.860;2022-07-21T07:49:00;14.17;;;12.67;;
2522;SDS011;1272;53.332;9.860;2022-07-21T07:51:26;11.53;;;10.33;;
2522;SDS011;1272;53.332;9.860;2022-07-21T07:53:51;12.40;;;10.30;;
2522;SDS011;1272;53.332;9.860;2022-07-21T07:56:17;12.80;;;10.80;;
2522;SDS011;1272;53.332;9.860;2022-07-21T07:58:43;12.93;;;10.43;;
2522;SDS011;1272;53.332;9.860;2022-07-21T08:01:08;15.93;;;11.17;;
2522;SDS011;1272;53.332;9.860;2022-07-21T08:03:34;9.80;;;8.80;;
2522;SDS011;1272;53.332;9.860;2022-07-21T08:06:01;18.67;;;12.20;;
2522;SDS011;1272;53.332;9.860;2022-07-21T08:08:31;15.80;;;11.67;;
2522;SDS011;1272;53.332;9.860;2022-07-21T08:10:58;11.87;;;10.60;;
2522;SDS011;1272;53.332;9.860;2022-07-21T08:13:24;12.27;;;11.10;;
2522;SDS011;1272;53.332;9.860;2022-07-21T08:15:50;14.03;;;12.30;;
2522;SDS011;1272;53.332;9.860;2022-07-21T08:18:16;16.30;;;12.50;;
2522;SDS011;1272;53.332;9.860;2022-07-21T08:20:42;14.00;;;12.67;;
2522;SDS011;1272;53.332;9.860;2022-07-21T08:23:09;12.43;;;11.00;;
2522;SDS011;1272;53.332;9.860;2022-07-21T08:25:35;13.30;;;12.00;;
2522;SDS011;1272;53.332;9.860;2022-07-21T08:28:01;15.03;;;12.90;;
2522;SDS011;1272;53.332;9.860;2022-07-21T08:30:27;14.50;;;12.73;;
2522;SDS011;1272;53.332;9.860;2022-07-21T08:32:52;19.97;;;12.83;;
2522;SDS011;1272;53.332;9.860;2022-07-21T08:35:18;12.20;;;10.90;;
2522;SDS011;1272;53.332;9.860;2022-07-21T08:37:52;13.80;;;10.43;;
2522;SDS011;1272;53.332;9.860;2022-07-21T08:40:19;14.93;;;13.07;;
2522;SDS011;1272;53.332;9.860;2022-07-21T08:42:51;14.80;;;13.33;;
2522;SDS011;1272;53.332;9.860;2022-07-21T08:45:18;15.10;;;13.17;;
2522;SDS011;1272;53.332;9.860;2022-07-21T08:47:44;19.97;;;13.37;;
2522;SDS011;1272;53.332;9.860;2022-07-21T08:50:10;13.53;;;12.13;;
2522;SDS011;1272;53.332;9.860;2022-07-21T08:52:36;13.00;;;11.77;;
2522;SDS011;1272;53.332;9.860;2022-07-21T08:55:02;15.17;;;13.13;;
2522;SDS011;1272;53.332;9.860;2022-07-21T08:57:28;13.70;;;12.30;;
2522;SDS011;1272;53.332;9.860;2022-07-21T08:59:54;14.30;;;12.53;;
2522;SDS011;1272;53.332;9.860;2022-07-21T09:02:27;13.07;;;11.90;;
2522;SDS011;1272;53.332;9.860;2022-07-21T09:04:52;11.10;;;10.03;;
2522;SDS011;1272;53.332;9.860;2022-07-21T09:07:18;11.30;;;10.33;;
2522;SDS011;1272;53.332;9.860;2022-07-21T09:09:53;13.73;;;11.40;;
2522;SDS011;1272;53.332;9.860;2022-07-21T09:12:24;10.50;;;9.50;;
2522;SDS011;1272;53.332;9.860;2022-07-21T09:14:50;11.40;;;10.40;;
2522;SDS011;1272;53.332;9.860;2022-07-21T09:17:17;14.17;;;10.40;;
2522;SDS011;1272;53.332;9.860;2022-07-21T09:19:44;10.77;;;8.70;;
2522;SDS011;1272;53.332;9.860;2022-07-21T09:22:14;10.07;;;9.07;;
2522;SDS011;1272;53.332;9.860;2022-07-21T09:24:50;12.37;;;10.20;;
2522;SDS011;1272;53.332;9.860;2022-07-21T09:27:17;11.17;;;9.97;;
2522;SDS011;1272;53.332;9.860;2022-07-21T09:29:56;10.27;;;9.20;;
2522;SDS011;1272;53.332;9.860;2022-07-21T09:32:27;12.43;;;10.10;;
2522;SDS011;1272;53.332;9.860;2022-07-21T09:37:24;13.67;;;9.70;;
2522;SDS011;1272;53.332;9.860;2022-07-21T09:42:25;9.73;;;8.83;;
2522;SDS011;1272;53.332;9.860;2022-07-21T09:44:57;10.73;;;9.73;;
2522;SDS011;1272;53.332;9.860;2022-07-21T09:47:26;11.03;;;9.90;;
2522;SDS011;1272;53.332;9.860;2022-07-21T09:49:53;9.50;;;8.60;;
2522;SDS011;1272;53.332;9.860;2022-07-21T09:52:20;10.03;;;9.17;;
2522;SDS011;1272;53.332;9.860;2022-07-21T09:54:55;9.73;;;8.73;;
2522;SDS011;1272;53.332;9.860;2022-07-21T09:57:37;8.83;;;7.90;;
2522;SDS011;1272;53.332;9.860;2022-07-21T10:00:06;11.60;;;10.50;;
2522;SDS011;1272;53.332;9.860;2022-07-21T10:02:33;9.60;;;8.80;;
2522;SDS011;1272;53.332;9.860;2022-07-21T10:05:03;10.87;;;9.77;;
2522;SDS011;1272;53.332;9.860;2022-07-21T10:07:45;10.90;;;9.10;;
2522;SDS011;1272;53.332;9.860;2022-07-21T10:10:14;10.60;;;9.67;;
2522;SDS011;1272;53.332;9.860;2022-07-21T10:12:40;8.80;;;8.10;;
2522;SDS011;1272;53.332;9.860;2022-07-21T10:15:06;9.00;;;7.93;;
2522;SDS011;1272;53.332;9.860;2022-07-21T10:17:32;12.40;;;9.47;;
2522;SDS011;1272;53.332;9.860;2022-07-21T10:20:18;11.30;;;9.00;;
2522;SDS011;1272;53.332;9.860;2022-07-21T10:25:31;11.43;;;10.43;;
2522;SDS011;1272;53.332;9.860;2022-07-21T10:30:39;10.07;;;8.97;;
2522;SDS011;1272;53.332;9.860;2022-07-21T10:33:09;9.53;;;8.83;;
2522;SDS011;1272;53.332;9.860;2022-07-21T10:35:38;10.57;;;9.67;;
2522;SDS011;1272;53.332;9.860;2022-07-21T10:38:06;10.17;;;9.37;;
2522;SDS011;1272;53.332;9.860;2022-07-21T10:40:57;8.80;;;8.03;;
2522;SDS011;1272;53.332;9.860;2022-07-21T10:45:50;9.83;;;8.97;;
2522;SDS011;1272;53.332;9.860;2022-07-21T10:51:07;11.60;;;7.83;;
2522;SDS011;1272;53.332;9.860;2022-07-21T10:53:37;9.10;;;8.30;;
2522;SDS011;1272;53.332;9.860;2022-07-21T10:56:04;9.43;;;8.63;;
2522;SDS011;1272;53.332;9.860;2022-07-21T10:58:36;7.83;;;7.33;;
2522;SDS011;1272;53.332;9.860;2022-07-21T11:08:54;7.50;;;6.80;;
2522;SDS011;1272;53.332;9.860;2022-07-21T11:24:48;8.27;;;7.57;;
2522;SDS011;1272;53.332;9.860;2022-07-21T11:27:21;7.87;;;6.93;;
2522;SDS011;1272;53.332;9.860;2022-07-21T11:29:50;8.53;;;7.80;;
2522;SDS011;1272;53.332;9.860;2022-07-21T11:32:17;7.93;;;7.33;;
2522;SDS011;1272;53.332;9.860;2022-07-21T11:34:45;7.83;;;7.13;;
2522;SDS011;1272;53.332;9.860;2022-07-21T11:37:17;7.90;;;7.20;;
2522;SDS011;1272;53.332;9.860;2022-07-21T11:39:51;8.90;;;8.00;;
2522;SDS011;1272;53.332;9.860;2022-07-21T11:42:16;7.83;;;7.23;;
2522;SDS011;1272;53.332;9.860;2022-07-21T11:44:42;7.60;;;6.97;;
2522;SDS011;1272;53.332;9.860;2022-07-21T11:47:13;10.30;;;7.77;;
2522;SDS011;1272;53.332;9.860;2022-07-21T11:49:40;7.50;;;6.90;;
2522;SDS011;1272;53.332;9.860;2022-07-21T11:52:09;8.23;;;7.43;;
2522;SDS011;1272;53.332;9.860;2022-07-21T11:54:46;8.03;;;7.30;;
2522;SDS011;1272;53.332;9.860;2022-07-21T11:57:14;6.90;;;6.30;;
2522;SDS011;1272;53.332;9.860;2022-07-21T11:59:41;7.83;;;6.50;;
2522;SDS011;1272;53.332;9.860;2022-07-21T12:02:08;6.83;;;6.33;;
2522;SDS011;1272;53.332;9.860;2022-07-21T12:07:13;6.13;;;5.53;;
2522;SDS011;1272;53.332;9.860;2022-07-21T12:09:56;6.27;;;5.53;;
2522;SDS011;1272;53.332;9.860;2022-07-21T12:12:27;6.10;;;5.60;;
2522;SDS011;1272;53.332;9.860;2022-07-21T12:14:53;5.73;;;5.30;;
2522;SDS011;1272;53.332;9.860;2022-07-21T12:17:35;5.80;;;5.27;;
2522;SDS011;1272;53.332;9.860;2022-07-21T12:20:06;5.20;;;4.80;;
2522;SDS011;1272;53.332;9.860;2022-07-21T12:22:42;4.80;;;4.50;;
2522;SDS011;1272;53.332;9.860;2022-07-21T12:25:14;4.03;;;3.83;;
2522;SDS011;1272;53.332;9.860;2022-07-21T12:27:46;4.37;;;3.97;;
2522;SDS011;1272;53.332;9.860;2022-07-21T12:33:00;3.93;;;3.73;;
2522;SDS011;1272;53.332;9.860;2022-07-21T12:35:27;3.70;;;3.50;;
2522;SDS011;1272;53.332;9.860;2022-07-21T12:37:54;4.17;;;3.77;;
2522;SDS011;1272;53.332;9.860;2022-07-21T12:40:38;3.23;;;3.03;;
2522;SDS011;1272;53.332;9.860;2022-07-21T12:43:24;3.13;;;2.93;;
2522;SDS011;1272;53.332;9.860;2022-07-21T12:46:08;3.53;;;3.20;;
2522;SDS011;1272;53.332;9.860;2022-07-21T12:48:36;3.53;;;3.30;;
2522;SDS011;1272;53.332;9.860;2022-07-21T12:53:34;3.17;;;2.63;;
2522;SDS011;1272;53.332;9.860;2022-07-21T12:56:01;2.93;;;2.73;;
2522;SDS011;1272;53.332;9.860;2022-07-21T12:58:28;2.87;;;2.77;;
2522;SDS011;1272;53.332;9.860;2022-07-21T13:00:54;2.27;;;2.17;;
2522;SDS011;1272;53.332;9.860;2022-07-21T13:03:20;2.33;;;2.20;;
2522;SDS011;1272;53.332;9.860;2022-07-21T13:05:46;2.60;;;2.50;;
2522;SDS011;1272;53.332;9.860;2022-07-21T13:08:11;2.57;;;2.47;;
2522;SDS011;1272;53.332;9.860;2022-07-21T13:10:37;2.47;;;2.37;;
2522;SDS011;1272;53.332;9.860;2022-07-21T13:13:03;2.47;;;2.37;;
2522;SDS011;1272;53.332;9.860;2022-07-21T13:15:29;2.33;;;2.23;;
2522;SDS011;1272;53.332;9.860;2022-07-21T13:17:55;2.70;;;2.60;;
2522;SDS011;1272;53.332;9.860;2022-07-21T13:20:20;2.50;;;2.40;;
2522;SDS011;1272;53.332;9.860;2022-07-21T13:22:46;2.30;;;2.20;;
2522;SDS011;1272;53.332;9.860;2022-07-21T13:25:12;2.50;;;2.40;;
2522;SDS011;1272;53.332;9.860;2022-07-21T13:27:38;2.90;;;2.80;;
2522;SDS011;1272;53.332;9.860;2022-07-21T13:30:04;3.10;;;2.90;;
2522;SDS011;1272;53.332;9.860;2022-07-21T13:32:32;2.40;;;2.20;;
2522;SDS011;1272;53.332;9.860;2022-07-21T13:34:58;2.47;;;2.37;;
2522;SDS011;1272;53.332;9.860;2022-07-21T13:37:24;2.90;;;2.80;;
2522;SDS011;1272;53.332;9.860;2022-07-21T13:39:50;2.77;;;2.67;;
2522;SDS011;1272;53.332;9.860;2022-07-21T13:42:15;2.73;;;2.63;;
2522;SDS011;1272;53.332;9.860;2022-07-21T13:44:41;2.73;;;2.63;;
2522;SDS011;1272;53.332;9.860;2022-07-21T13:47:07;2.63;;;2.53;;
2522;SDS011;1272;53.332;9.860;2022-07-21T13:49:33;3.20;;;2.97;;
2522;SDS011;1272;53.332;9.860;2022-07-21T13:51:58;3.50;;;3.30;;
2522;SDS011;1272;53.332;9.860;2022-07-21T13:54:24;3.30;;;3.20;;
2522;SDS011;1272;53.332;9.860;2022-07-21T13:56:50;3.50;;;3.30;;
2522;SDS011;1272;53.332;9.860;2022-07-21T13:59:15;3.00;;;2.80;;
2522;SDS011;1272;53.332;9.860;2022-07-21T14:01:41;3.50;;;3.30;;
2522;SDS011;1272;53.332;9.860;2022-07-21T14:04:08;4.00;;;3.77;;
2522;SDS011;1272;53.332;9.860;2022-07-21T14:06:33;3.40;;;3.30;;
2522;SDS011;1272;53.332;9.860;2022-07-21T14:08:59;3.70;;;3.60;;
2522;SDS011;1272;53.332;9.860;2022-07-21T14:11:25;4.30;;;3.20;;
2522;SDS011;1272;53.332;9.860;2022-07-21T14:13:53;3.97;;;3.80;;
2522;SDS011;1272;53.332;9.860;2022-07-21T14:16:19;4.40;;;3.60;;
2522;SDS011;1272;53.332;9.860;2022-07-21T14:18:45;5.03;;;4.73;;
2522;SDS011;1272;53.332;9.860;2022-07-21T14:21:11;6.43;;;6.03;;
2522;SDS011;1272;53.332;9.860;2022-07-21T14:23:36;6.43;;;6.03;;
2522;SDS011;1272;53.332;9.860;2022-07-21T14:26:02;6.20;;;5.67;;
2522;SDS011;1272;53.332;9.860;2022-07-21T14:28:28;6.40;;;5.90;;
2522;SDS011;1272;53.332;9.860;2022-07-21T14:30:54;5.87;;;5.50;;
2522;SDS011;1272;53.332;9.860;2022-07-21T14:33:19;6.07;;;5.67;;
2522;SDS011;1272;53.332;9.860;2022-07-21T14:35:45;5.93;;;5.43;;
2522;SDS011;1272;53.332;9.860;2022-07-21T14:38:11;6.97;;;6.40;;
2522;SDS011;1272;53.332;9.860;2022-07-21T14:40:37;7.23;;;6.70;;
2522;SDS011;1272;53.332;9.860;2022-07-21T14:43:03;8.47;;;7.77;;
2522;SDS011;1272;53.332;9.860;2022-07-21T14:45:29;7.20;;;6.60;;
2522;SDS011;1272;53.332;9.860;2022-07-21T14:47:56;8.60;;;7.77;;
2522;SDS011;1272;53.332;9.860;2022-07-21T14:50:23;8.63;;;7.97;;
2522;SDS011;1272;53.332;9.860;2022-07-21T14:52:50;10.37;;;7.90;;
2522;SDS011;1272;53.332;9.860;2022-07-21T14:55:16;11.10;;;7.60;;
2522;SDS011;1272;53.332;9.860;2022-07-21T14:57:42;6.60;;;6.10;;
2522;SDS011;1272;53.332;9.860;2022-07-21T15:00:09;6.77;;;6.10;;
2522;SDS011;1272;53.332;9.860;2022-07-21T15:02:35;5.60;;;5.10;;
2522;SDS011;1272;53.332;9.860;2022-07-21T15:05:01;6.07;;;5.47;;
2522;SDS011;1272;53.332;9.860;2022-07-21T15:07:28;7.23;;;5.10;;
2522;SDS011;1272;53.332;9.860;2022-07-21T15:09:53;4.97;;;4.67;;
2522;SDS011;1272;53.332;9.860;2022-07-21T15:12:20;5.10;;;4.60;;
2522;SDS011;1272;53.332;9.860;2022-07-21T15:14:47;6.23;;;5.60;;
2522;SDS011;1272;53.332;9.860;2022-07-21T15:17:13;5.47;;;5.00;;
2522;SDS011;1272;53.332;9.860;2022-07-21T15:19:40;5.03;;;4.60;;
2522;SDS011;1272;53.332;9.860;2022-07-21T15:22:06;5.20;;;4.70;;
2522;SDS011;1272;53.332;9.860;2022-07-21T15:24:33;5.60;;;5.10;;
2522;SDS011;1272;53.332;9.860;2022-07-21T15:26:59;4.97;;;4.67;;
2522;SDS011;1272;53.332;9.860;2022-07-21T15:29:24;5.43;;;5.00;;
2522;SDS011;1272;53.332;9.860;2022-07-21T15:31:50;5.93;;;5.53;;
2522;SDS011;1272;53.332;9.860;2022-07-21T15:34:16;5.63;;;5.30;;
2522;SDS011;1272;53.332;9.860;2022-07-21T15:36:42;5.43;;;5.10;;
2522;SDS011;1272;53.332;9.860;2022-07-21T15:39:08;6.50;;;6.00;;
2522;SDS011;1272;53.332;9.860;2022-07-21T15:41:35;7.33;;;6.83;;
2522;SDS011;1272;53.332;9.860;2022-07-21T15:44:02;7.80;;;7.10;;